createdAt,value
2019-03-01T00:01:01.060Z,2.23
2019-03-01T00:03:34.661Z,2.15
2019-03-01T00:06:31.177Z,2.13
2019-03-01T00:09:48.038Z,2.10
2019-03-01T00:13:12.952Z,1.90
2019-03-01T00:16:15.848Z,1.97
2019-03-01T00:19:47.263Z,1.97
2019-03-01T00:23:01.458Z,1.95
2019-03-01T00:26:22.456Z,1.86
2019-03-01T00:29:51.458Z,1.78
2019-03-01T00:32:56.469Z,1.74
2019-03-01T00:36:38.547Z,1.69
2019-03-01T00:40:02.841Z,1.61
2019-03-01T00:43:26.243Z,1.62
2019-03-01T00:45:58.125Z,1.60
2019-03-01T00:48:29.923Z,1.61
2019-03-01T00:51:01.748Z,1.68
2019-03-01T00:53:33.743Z,1.69
2019-03-01T00:56:05.784Z,1.70
2019-03-01T00:58:37.531Z,1.58
2019-03-01T01:01:09.615Z,1.48
2019-03-01T01:03:41.359Z,1.44
2019-03-01T01:06:13.826Z,1.48
2019-03-01T01:08:45.963Z,1.54
2019-03-01T01:14:07.318Z,1.49
2019-03-01T01:16:39.107Z,1.54
2019-03-01T01:19:11.120Z,1.58
2019-03-01T01:21:42.918Z,1.59
2019-03-01T01:24:15.071Z,1.56
2019-03-01T01:26:46.823Z,1.48
2019-03-01T01:29:18.875Z,1.53
2019-03-01T01:31:50.633Z,1.57
2019-03-01T01:34:22.696Z,1.48
2019-03-01T01:36:54.456Z,1.41
2019-03-01T01:39:27.973Z,1.38
2019-03-01T01:41:59.744Z,1.42
2019-03-01T01:44:31.881Z,1.42
2019-03-01T01:47:03.657Z,1.46
2019-03-01T01:49:35.549Z,1.42
2019-03-01T01:52:07.298Z,1.42
2019-03-01T01:54:39.776Z,1.44
2019-03-01T01:57:11.553Z,1.45
2019-03-01T01:59:43.560Z,1.37
2019-03-01T02:02:15.337Z,1.38
2019-03-01T02:04:47.412Z,1.45
2019-03-01T02:07:19.149Z,1.46
2019-03-01T02:09:51.425Z,1.51
2019-03-01T02:12:23.200Z,1.57
2019-03-01T02:14:55.263Z,1.50
2019-03-01T02:17:26.999Z,1.55
2019-03-01T02:19:59.072Z,1.55
2019-03-01T02:22:30.812Z,1.59
2019-03-01T02:25:02.799Z,1.58
2019-03-01T02:27:34.614Z,1.52
2019-03-01T02:30:15.048Z,1.52
2019-03-01T02:32:53.260Z,1.59
2019-03-01T02:35:27.466Z,1.62
2019-03-01T02:37:59.201Z,1.62
2019-03-01T02:40:31.176Z,1.58
2019-03-01T02:43:02.920Z,1.49
2019-03-01T02:45:34.773Z,1.56
2019-03-01T02:48:06.511Z,1.60
2019-03-01T02:50:38.346Z,1.55
2019-03-01T02:53:11.182Z,1.61
2019-03-01T02:55:43.560Z,1.62
2019-03-01T02:58:15.339Z,1.70
2019-03-01T03:00:47.143Z,1.72
2019-03-01T03:03:18.959Z,1.66
2019-03-01T03:06:12.427Z,1.74
2019-03-01T03:08:44.193Z,1.64
2019-03-01T03:11:16.473Z,1.75
2019-03-01T03:13:48.281Z,1.73
2019-03-01T03:16:20.989Z,1.71
2019-03-01T03:18:52.730Z,1.71
2019-03-01T03:21:24.702Z,1.67
2019-03-01T03:23:56.506Z,1.71
2019-03-01T03:26:28.621Z,1.70
2019-03-01T03:29:00.400Z,1.66
2019-03-01T03:31:32.230Z,1.67
2019-03-01T03:34:04.003Z,1.65
2019-03-01T03:36:36.068Z,1.52
2019-03-01T03:39:12.445Z,1.63
2019-03-01T03:41:44.827Z,1.72
2019-03-01T03:44:16.577Z,1.71
2019-03-01T03:46:48.644Z,1.67
2019-03-01T03:49:20.377Z,1.69
2019-03-01T03:51:52.354Z,1.60
2019-03-01T03:54:24.150Z,1.62
2019-03-01T03:56:56.331Z,1.63
2019-03-01T03:59:28.163Z,1.41
2019-03-01T04:02:00.216Z,1.53
2019-03-01T04:04:32.223Z,1.56
2019-03-01T04:07:04.248Z,1.63
2019-03-01T04:09:36.030Z,1.64
2019-03-01T04:12:09.750Z,1.54
2019-03-01T04:14:41.509Z,1.53
2019-03-01T04:17:13.433Z,1.62
2019-03-01T04:19:45.165Z,1.56
2019-03-01T04:22:17.033Z,1.61
2019-03-01T04:24:48.806Z,1.66
2019-03-01T04:27:20.834Z,1.61
2019-03-01T04:29:52.736Z,1.60
2019-03-01T04:32:24.583Z,1.52
2019-03-01T04:34:56.393Z,1.52
2019-03-01T04:37:28.425Z,1.62
2019-03-01T04:40:01.278Z,1.63
2019-03-01T04:42:34.815Z,1.53
2019-03-01T04:45:07.267Z,1.42
2019-03-01T04:47:39.119Z,1.41
2019-03-01T04:50:11.494Z,1.44
2019-03-01T04:52:43.552Z,1.46
2019-03-01T04:55:24.405Z,1.46
2019-03-01T04:57:56.726Z,1.47
2019-03-01T05:00:28.477Z,1.39
2019-03-01T05:03:00.450Z,1.39
2019-03-01T05:05:32.196Z,1.39
2019-03-01T05:08:04.282Z,1.33
2019-03-01T05:10:36.048Z,1.32
2019-03-01T05:13:08.306Z,1.28
2019-03-01T05:15:40.064Z,1.21
2019-03-01T05:18:11.939Z,1.15
2019-03-01T05:20:43.665Z,1.25
2019-03-01T05:23:15.761Z,1.24
2019-03-01T05:25:47.770Z,1.29
2019-03-01T05:28:20.085Z,1.28
2019-03-01T05:30:51.863Z,1.32
2019-03-01T05:33:24.017Z,1.34
2019-03-01T05:35:55.941Z,1.27
2019-03-01T05:38:28.043Z,1.24
2019-03-01T05:40:59.816Z,1.28
2019-03-01T05:43:31.712Z,1.33
2019-03-01T05:46:03.478Z,1.41
2019-03-01T05:48:35.359Z,1.18
2019-03-01T05:51:07.408Z,1.08
2019-03-01T05:53:39.429Z,1.10
2019-03-01T05:56:11.215Z,1.17
2019-03-01T05:59:13.238Z,1.17
2019-03-01T06:02:48.473Z,1.14
2019-03-01T06:05:35.390Z,1.16
2019-03-01T06:09:10.977Z,1.22
2019-03-01T06:12:02.028Z,1.20
2019-03-01T06:15:21.510Z,1.09
2019-03-01T06:18:45.860Z,1.25
2019-03-01T06:22:15.154Z,1.50
2019-03-01T06:26:02.295Z,1.41
2019-03-01T06:29:29.547Z,1.32
2019-03-01T06:33:13.838Z,1.26
2019-03-01T06:36:34.271Z,1.30
2019-03-01T06:40:01.267Z,1.43
2019-03-01T06:43:59.895Z,1.47
2019-03-01T06:47:03.049Z,1.69
2019-03-01T06:50:13.128Z,1.84
2019-03-01T06:52:45.571Z,1.66
2019-03-01T06:55:50.609Z,1.78
2019-03-01T06:58:44.924Z,1.78
2019-03-01T07:01:18.913Z,1.86
2019-03-01T07:03:59.503Z,1.74
2019-03-01T07:06:31.295Z,1.76
2019-03-01T07:09:03.299Z,1.75
2019-03-01T07:11:35.523Z,1.66
2019-03-01T07:14:07.366Z,1.59
2019-03-01T07:16:39.175Z,1.66
2019-03-01T07:19:10.981Z,1.82
2019-03-01T07:21:43.098Z,1.92
2019-03-01T07:24:15.267Z,2.15
2019-03-01T07:26:47.039Z,2.48
2019-03-01T07:29:19.249Z,2.44
2019-03-01T07:31:51.453Z,2.35
2019-03-01T07:34:23.396Z,2.32
2019-03-01T07:36:55.227Z,2.33
2019-03-01T07:39:27.303Z,2.59
2019-03-01T07:41:59.181Z,2.74
2019-03-01T07:44:30.967Z,2.71
2019-03-01T07:47:03.208Z,2.77
2019-03-01T07:49:36.230Z,2.82
2019-03-01T07:52:08.033Z,3.02
2019-03-01T07:54:39.860Z,3.08
2019-03-01T07:57:14.738Z,3.03
2019-03-01T07:59:46.371Z,2.98
2019-03-01T08:02:18.551Z,2.92
2019-03-01T08:04:50.412Z,2.90
2019-03-01T08:07:23.584Z,3.18
2019-03-01T08:09:56.388Z,3.14
2019-03-01T08:12:28.264Z,3.07
2019-03-01T08:15:00.413Z,3.13
2019-03-01T08:17:32.753Z,3.35
2019-03-01T08:20:05.250Z,3.56
2019-03-01T08:22:47.465Z,3.76
2019-03-01T08:25:12.246Z,3.84
2019-03-01T08:27:46.245Z,3.82
2019-03-01T08:30:18.129Z,3.83
2019-03-01T08:32:50.237Z,4.12
2019-03-01T08:35:25.282Z,4.08
2019-03-01T08:37:55.701Z,3.79
2019-03-01T08:40:27.756Z,3.69
2019-03-01T08:42:59.553Z,3.56
2019-03-01T08:45:32.979Z,3.62
2019-03-01T08:48:05.385Z,3.88
2019-03-01T08:50:37.533Z,4.10
2019-03-01T08:53:11.490Z,4.20
2019-03-01T08:55:42.946Z,4.17
2019-03-01T08:58:14.713Z,4.34
2019-03-01T09:00:47.042Z,4.38
2019-03-01T09:03:38.828Z,4.18
2019-03-01T09:06:10.915Z,4.26
2019-03-01T09:08:45.953Z,4.29
2019-03-01T09:11:16.577Z,4.27
2019-03-01T09:13:48.890Z,4.48
2019-03-01T09:16:21.123Z,4.62
2019-03-01T09:18:52.927Z,4.47
2019-03-01T09:21:25.068Z,4.28
2019-03-01T09:23:56.944Z,4.62
2019-03-01T09:26:29.081Z,5.03
2019-03-01T09:29:00.856Z,5.14
2019-03-01T09:31:32.903Z,5.50
2019-03-01T09:34:06.196Z,5.52
2019-03-01T09:36:51.456Z,5.81
2019-03-01T09:39:24.309Z,5.70
2019-03-01T09:42:02.880Z,5.80
2019-03-01T09:44:29.793Z,5.90
2019-03-01T09:47:02.601Z,6.02
2019-03-01T09:49:36.375Z,5.95
2019-03-01T09:52:08.593Z,5.86
2019-03-01T09:54:40.413Z,5.86
2019-03-01T09:57:15.629Z,5.62
2019-03-01T09:59:46.144Z,5.77
2019-03-01T10:02:18.384Z,5.78
2019-03-01T10:04:51.242Z,5.96
2019-03-01T10:07:23.347Z,5.54
2019-03-01T10:09:55.200Z,5.44
2019-03-01T10:12:27.374Z,5.89
2019-03-01T10:14:59.217Z,5.52
2019-03-01T10:17:31.176Z,5.87
2019-03-01T10:20:03.140Z,6.02
2019-03-01T10:22:35.114Z,6.30
2019-03-01T10:25:08.117Z,5.99
2019-03-01T10:27:40.385Z,6.18
2019-03-01T10:30:18.435Z,6.39
2019-03-01T10:32:50.639Z,6.43
2019-03-01T10:35:22.781Z,6.61
2019-03-01T10:37:54.796Z,6.65
2019-03-01T10:40:26.644Z,6.64
2019-03-01T10:42:58.822Z,6.65
2019-03-01T10:45:30.755Z,6.28
2019-03-01T10:48:02.597Z,6.43
2019-03-01T10:50:34.695Z,6.32
2019-03-01T10:53:06.793Z,6.62
2019-03-01T10:55:38.686Z,6.53
2019-03-01T10:58:10.592Z,6.79
2019-03-01T11:00:42.482Z,6.56
2019-03-01T11:03:14.829Z,6.57
2019-03-01T11:05:47.051Z,6.58
2019-03-01T11:08:18.891Z,6.40
2019-03-01T11:10:50.665Z,6.27
2019-03-01T11:13:22.787Z,6.39
2019-03-01T11:15:54.585Z,6.38
2019-03-01T11:18:26.612Z,6.26
2019-03-01T11:20:58.763Z,6.33
2019-03-01T11:23:32.636Z,6.41
2019-03-01T11:26:04.182Z,6.56
2019-03-01T11:28:36.311Z,6.50
2019-03-01T11:31:08.141Z,6.69
2019-03-01T11:33:40.227Z,6.80
2019-03-01T11:36:12.816Z,6.64
2019-03-01T11:38:44.830Z,6.58
2019-03-01T11:41:16.693Z,6.28
2019-03-01T11:43:48.808Z,6.55
2019-03-01T11:46:20.884Z,6.68
2019-03-01T11:48:52.805Z,7.28
2019-03-01T11:51:24.788Z,7.58
2019-03-01T11:53:56.867Z,7.24
2019-03-01T11:56:28.649Z,7.39
2019-03-01T11:59:00.792Z,7.85
2019-03-01T12:01:33.651Z,8.15
2019-03-01T12:04:05.795Z,8.44
2019-03-01T12:06:37.959Z,8.20
2019-03-01T12:09:10.380Z,7.97
2019-03-01T12:11:42.234Z,7.85
2019-03-01T12:14:14.080Z,7.63
2019-03-01T12:16:45.939Z,7.26
2019-03-01T12:19:18.070Z,7.25
2019-03-01T12:21:50.260Z,7.34
2019-03-01T12:24:22.135Z,7.21
2019-03-01T12:26:53.920Z,7.21
2019-03-01T12:29:25.890Z,7.33
2019-03-01T12:31:57.703Z,7.55
2019-03-01T12:34:29.859Z,7.92
2019-03-01T12:37:01.900Z,7.91
2019-03-01T12:39:33.831Z,7.88
2019-03-01T12:42:05.612Z,7.68
2019-03-01T12:44:37.552Z,7.38
2019-03-01T12:47:09.343Z,7.15
2019-03-01T12:49:41.631Z,6.94
2019-03-01T12:52:13.728Z,6.93
2019-03-01T12:54:45.675Z,6.87
2019-03-01T12:57:17.642Z,7.03
2019-03-01T12:59:49.537Z,6.91
2019-03-01T13:02:21.329Z,6.99
2019-03-01T13:04:54.483Z,6.55
2019-03-01T13:07:26.883Z,6.72
2019-03-01T13:09:58.950Z,6.69
2019-03-01T13:12:32.299Z,6.58
2019-03-01T13:15:04.336Z,6.84
2019-03-01T13:17:37.228Z,7.50
2019-03-01T13:20:14.070Z,7.89
2019-03-01T13:22:46.467Z,8.04
2019-03-01T13:25:19.572Z,7.71
2019-03-01T13:27:52.372Z,7.92
2019-03-01T13:30:25.241Z,7.86
2019-03-01T13:32:58.940Z,7.95
2019-03-01T13:35:30.921Z,8.24
2019-03-01T13:38:03.910Z,8.31
2019-03-01T13:40:36.281Z,8.74
2019-03-01T13:43:08.889Z,9.52
2019-03-01T13:45:41.052Z,10.17
2019-03-01T13:48:15.807Z,10.16
2019-03-01T13:50:46.689Z,10.28
2019-03-01T13:53:19.889Z,10.37
2019-03-01T13:55:52.382Z,10.63
2019-03-01T13:58:27.705Z,10.19
2019-03-01T14:00:57.960Z,9.29
2019-03-01T14:03:29.746Z,8.79
2019-03-01T14:06:02.255Z,8.00
2019-03-01T14:08:34.658Z,7.58
2019-03-01T14:11:06.613Z,7.22
2019-03-01T14:13:38.556Z,7.28
2019-03-01T14:16:10.443Z,7.05
2019-03-01T14:18:42.258Z,7.06
2019-03-01T14:21:14.338Z,6.89
2019-03-01T14:23:46.354Z,6.71
2019-03-01T14:26:19.385Z,6.65
2019-03-01T14:28:51.638Z,6.60
2019-03-01T14:31:23.961Z,6.61
2019-03-01T14:33:55.790Z,6.50
2019-03-01T14:36:27.969Z,6.40
2019-03-01T14:38:59.933Z,6.40
2019-03-01T14:41:35.083Z,6.45
2019-03-01T14:44:05.716Z,6.48
2019-03-01T14:46:37.762Z,6.61
2019-03-01T14:49:09.660Z,6.48
2019-03-01T14:51:46.519Z,6.24
2019-03-01T14:54:15.698Z,6.25
2019-03-01T14:56:59.869Z,6.07
2019-03-01T15:00:16.494Z,5.76
2019-03-01T15:03:30.687Z,5.80
2019-03-01T15:06:03.322Z,5.72
2019-03-01T15:08:35.494Z,5.75
2019-03-01T15:11:11.814Z,5.83
2019-03-01T15:13:44.153Z,5.90
2019-03-01T15:16:16.053Z,5.97
2019-03-01T15:18:48.157Z,5.91
2019-03-01T15:21:21.371Z,5.73
2019-03-01T15:23:56.204Z,5.46
2019-03-01T15:26:27.942Z,5.52
2019-03-01T15:29:00.926Z,5.38
2019-03-01T15:31:32.952Z,5.22
2019-03-01T15:34:05.146Z,5.23
2019-03-01T15:36:36.983Z,5.19
2019-03-01T15:39:09.498Z,5.15
2019-03-01T15:41:43.047Z,5.18
2019-03-01T15:44:15.807Z,5.16
2019-03-01T15:46:49.958Z,5.15
2019-03-01T15:49:23.690Z,5.02
2019-03-01T15:51:55.760Z,4.80
2019-03-01T15:54:27.937Z,4.76
2019-03-01T15:57:00.167Z,4.85
2019-03-01T15:59:32.359Z,4.80
2019-03-01T16:02:05.362Z,4.77
2019-03-01T16:04:37.304Z,4.69
2019-03-01T16:07:09.193Z,4.74
2019-03-01T16:09:41.296Z,4.68
2019-03-01T16:12:13.421Z,4.61
2019-03-01T16:14:45.584Z,4.60
2019-03-01T16:17:17.429Z,4.51
2019-03-01T16:19:50.155Z,4.46
2019-03-01T16:22:24.246Z,4.40
2019-03-01T16:24:56.393Z,4.37
2019-03-01T16:27:28.483Z,4.33
2019-03-01T16:30:00.868Z,4.23
2019-03-01T16:32:33.401Z,4.18
2019-03-01T16:35:06.102Z,4.14
2019-03-01T16:37:38.688Z,4.10
2019-03-01T16:40:13.067Z,4.06
2019-03-01T16:42:45.113Z,4.02
2019-03-01T16:45:20.957Z,3.97
2019-03-01T16:47:52.132Z,3.94
2019-03-01T16:50:24.609Z,3.89
2019-03-01T16:52:56.758Z,3.87
2019-03-01T16:55:28.895Z,3.82
2019-03-01T16:58:06.773Z,3.81
2019-03-01T17:00:37.990Z,3.68
2019-03-01T17:03:10.091Z,3.74
2019-03-01T17:05:42.318Z,3.72
2019-03-01T17:08:14.286Z,3.65
2019-03-01T17:10:46.469Z,3.63
2019-03-01T17:13:18.851Z,3.61
2019-03-01T17:15:51.195Z,3.61
2019-03-01T17:18:23.639Z,3.50
2019-03-01T17:20:55.846Z,3.52
2019-03-01T17:23:27.695Z,3.54
2019-03-01T17:25:59.718Z,3.47
2019-03-01T17:28:31.789Z,3.44
2019-03-01T17:31:03.795Z,3.49
2019-03-01T17:33:35.680Z,3.45
2019-03-01T17:36:07.813Z,3.42
2019-03-01T17:38:43.508Z,3.36
2019-03-01T17:41:13.844Z,3.32
2019-03-01T17:43:45.930Z,3.40
2019-03-01T17:46:19.495Z,3.30
2019-03-01T17:48:54.177Z,3.35
2019-03-01T17:51:25.763Z,3.31
2019-03-01T17:53:57.833Z,3.20
2019-03-01T17:56:30.315Z,3.20
2019-03-01T17:59:02.717Z,3.22
2019-03-01T18:01:38.972Z,3.15
2019-03-01T18:04:09.562Z,3.24
2019-03-01T18:06:42.261Z,3.15
2019-03-01T18:09:16.230Z,3.15
2019-03-01T18:11:50.053Z,3.11
2019-03-01T18:14:22.986Z,2.94
2019-03-01T18:16:57.074Z,2.99
2019-03-01T18:19:29.755Z,3.02
2019-03-01T18:22:02.154Z,2.94
2019-03-01T18:24:34.805Z,2.97
2019-03-01T18:27:08.207Z,2.95
2019-03-01T18:29:42.396Z,2.93
2019-03-01T18:32:17.198Z,2.85
2019-03-01T18:34:50.745Z,2.84
2019-03-01T18:37:24.739Z,2.75
2019-03-01T18:39:57.716Z,2.80
2019-03-01T18:42:34.306Z,2.65
2019-03-01T18:45:07.924Z,2.70
2019-03-01T18:47:40.868Z,2.69
2019-03-01T18:50:18.753Z,2.57
2019-03-01T18:52:53.215Z,2.53
2019-03-01T18:55:24.960Z,2.50
2019-03-01T18:57:57.283Z,2.41
2019-03-01T19:00:35.635Z,2.42
2019-03-01T19:03:08.704Z,2.41
2019-03-01T19:05:41.499Z,2.34
2019-03-01T19:08:14.162Z,2.25
2019-03-01T19:10:53.999Z,2.22
2019-03-01T19:13:23.874Z,2.12
2019-03-01T19:15:54.846Z,1.97
2019-03-01T19:18:27.314Z,1.84
2019-03-01T19:20:59.828Z,1.87
2019-03-01T19:23:33.371Z,1.93
2019-03-01T19:26:06.778Z,1.91
2019-03-01T19:28:39.499Z,1.96
2019-03-01T19:31:12.889Z,1.95
2019-03-01T19:33:46.480Z,1.92
2019-03-01T19:36:18.967Z,1.96
2019-03-01T19:38:51.822Z,1.89
2019-03-01T19:41:24.627Z,1.97
2019-03-01T19:43:58.471Z,1.91
2019-03-01T19:46:32.317Z,1.78
2019-03-01T19:49:05.951Z,1.73
2019-03-01T19:51:39.132Z,1.63
2019-03-01T19:54:14.170Z,1.49
2019-03-01T19:56:48.348Z,1.46
2019-03-01T19:59:22.228Z,1.38
2019-03-01T20:01:56.303Z,1.35
2019-03-01T20:04:30.662Z,1.23
2019-03-01T20:07:04.392Z,1.18
2019-03-01T20:09:39.759Z,1.10
2019-03-01T20:12:14.197Z,1.03
2019-03-01T20:14:47.725Z,0.99
2019-03-01T20:17:21.862Z,0.89
2019-03-01T20:19:56.986Z,0.80
2019-03-01T20:22:32.153Z,0.69
2019-03-01T20:25:06.507Z,0.63
2019-03-01T20:27:40.277Z,0.67
2019-03-01T20:30:28.820Z,0.62
2019-03-01T20:32:57.378Z,0.42
2019-03-01T20:35:31.115Z,0.47
2019-03-01T20:38:04.841Z,0.42
2019-03-01T20:40:39.314Z,0.28
2019-03-01T20:43:12.760Z,0.33
2019-03-01T20:45:48.001Z,0.28
2019-03-01T20:48:25.667Z,0.28
2019-03-01T20:50:57.956Z,0.20
2019-03-01T20:53:31.679Z,0.23
2019-03-01T20:56:05.750Z,0.27
2019-03-01T20:58:39.554Z,0.17
2019-03-01T21:01:14.785Z,0.28
2019-03-01T21:03:48.731Z,0.31
2019-03-01T21:06:23.752Z,0.30
2019-03-01T21:09:00.692Z,0.30
2019-03-01T21:11:33.006Z,0.34
2019-03-01T21:14:06.542Z,0.40
2019-03-01T21:16:41.439Z,0.45
2019-03-01T21:19:16.086Z,0.50
2019-03-01T21:21:49.895Z,0.47
2019-03-01T21:24:26.569Z,0.49
2019-03-01T21:26:59.621Z,0.46
2019-03-01T21:29:32.515Z,0.41
2019-03-01T21:32:05.380Z,0.43
2019-03-01T21:34:38.437Z,0.36
2019-03-01T21:37:11.921Z,0.31
2019-03-01T21:39:45.378Z,0.25
2019-03-01T21:42:20.250Z,0.22
2019-03-01T21:44:53.456Z,0.20
2019-03-01T21:47:27.229Z,0.15
2019-03-01T21:49:59.966Z,0.06
2019-03-01T21:52:33.648Z,0.09
2019-03-01T21:55:06.237Z,0.12
2019-03-01T21:57:39.913Z,0.18
2019-03-01T22:00:16.254Z,0.09
2019-03-01T22:02:52.790Z,0.11
2019-03-01T22:05:22.411Z,0.13
2019-03-01T22:07:55.301Z,0.11
2019-03-01T22:10:27.181Z,0.08
2019-03-01T22:13:00.532Z,0.04
2019-03-01T22:15:32.978Z,-0.11
2019-03-01T22:18:05.479Z,-0.21
2019-03-01T22:20:37.292Z,-0.21
2019-03-01T22:23:10.220Z,-0.32
2019-03-01T22:25:43.255Z,-0.32
2019-03-01T22:28:15.354Z,-0.39
2019-03-01T22:30:47.204Z,-0.48
2019-03-01T22:33:20.759Z,-0.49
2019-03-01T22:35:53.120Z,-0.50
2019-03-01T22:38:25.007Z,-0.69
2019-03-01T22:40:56.875Z,-0.63
2019-03-01T22:43:28.967Z,-0.63
2019-03-01T22:46:00.926Z,-0.68
2019-03-01T22:48:33.930Z,-0.75
2019-03-01T22:51:06.165Z,-0.66
2019-03-01T22:53:38.615Z,-0.69
2019-03-01T22:56:13.010Z,-0.69
2019-03-01T22:58:45.385Z,-0.66
2019-03-01T23:01:33.676Z,-0.70
2019-03-01T23:04:07.881Z,-0.67
2019-03-01T23:06:39.940Z,-0.65
2019-03-01T23:09:17.689Z,-0.60
2019-03-01T23:11:49.593Z,-0.52
2019-03-01T23:14:21.958Z,-0.56
2019-03-01T23:16:54.491Z,-0.42
2019-03-01T23:19:28.751Z,-0.42
2019-03-01T23:22:00.899Z,-0.39
2019-03-01T23:24:35.117Z,-0.41
2019-03-01T23:27:06.562Z,-0.34
2019-03-01T23:29:39.939Z,-0.31
2019-03-01T23:32:15.399Z,-0.31
2019-03-01T23:34:45.588Z,-0.35
2019-03-01T23:37:17.903Z,-0.31
2019-03-01T23:39:50.059Z,-0.36
2019-03-01T23:42:22.055Z,-0.37
2019-03-01T23:44:54.426Z,-0.40
2019-03-01T23:47:26.194Z,-0.42
2019-03-01T23:49:59.382Z,-0.44
2019-03-01T23:52:31.573Z,-0.42
2019-03-01T23:55:03.580Z,-0.35
2019-03-01T23:57:38.101Z,-0.39
